createdAt,value
2018-01-22T00:11:06.865Z,999.76
2018-01-22T00:11:47.414Z,999.78
2018-01-22T00:12:27.953Z,999.73
2018-01-22T00:13:11.325Z,999.7
2018-01-22T00:13:51.836Z,999.69
2018-01-22T00:14:32.366Z,999.71
2018-01-22T00:15:12.902Z,999.67
2018-01-22T00:15:53.496Z,999.64
2018-01-22T00:16:34.088Z,999.6
2018-01-22T00:17:14.943Z,999.6
2018-01-22T00:17:55.894Z,999.57
2018-01-22T00:18:36.517Z,999.64
2018-01-22T00:19:17.010Z,999.58
2018-01-22T00:19:57.592Z,999.59
2018-01-22T00:20:38.177Z,999.6
2018-01-22T00:21:19.598Z,999.62
2018-01-22T00:22:00.583Z,999.61
2018-01-22T00:22:40.988Z,999.56
2018-01-22T00:23:21.547Z,999.54
2018-01-22T00:24:02.276Z,999.56
2018-01-22T00:24:42.720Z,999.57
2018-01-22T00:25:23.289Z,999.51
2018-01-22T00:26:03.945Z,999.51
2018-01-22T00:26:45.506Z,999.46
2018-01-22T00:27:26.085Z,999.46
2018-01-22T00:28:06.672Z,999.51
2018-01-22T00:28:47.224Z,999.46
2018-01-22T00:29:27.755Z,999.44
2018-01-22T00:30:09.262Z,999.42
2018-01-22T00:30:50.137Z,999.46
2018-01-22T00:31:30.685Z,999.42
2018-01-22T00:32:11.296Z,999.42
2018-01-22T00:32:51.909Z,999.41
2018-01-22T00:33:32.397Z,999.36
2018-01-22T00:34:12.981Z,999.34
2018-01-22T00:34:53.519Z,999.35
2018-01-22T00:35:35.363Z,999.28
2018-01-22T00:36:15.852Z,999.24
2018-01-22T00:36:56.451Z,999.24
2018-01-22T00:37:36.993Z,999.27
2018-01-22T00:38:17.502Z,999.25
2018-01-22T00:38:58.054Z,999.18
2018-01-22T00:39:40.309Z,999.16
2018-01-22T00:40:20.863Z,999.17
2018-01-22T00:41:01.511Z,999.14
2018-01-22T00:41:42.113Z,999.1
2018-01-22T00:42:22.662Z,999.06
2018-01-22T00:43:03.184Z,999.05
2018-01-22T00:43:44.713Z,999.02
2018-01-22T00:44:25.614Z,999.03
2018-01-22T00:45:06.159Z,999.05
2018-01-22T00:45:46.707Z,999.03
2018-01-22T00:46:27.252Z,998.97
2018-01-22T00:47:07.752Z,999
2018-01-22T00:47:48.317Z,998.93
2018-01-22T00:48:30.414Z,998.91
2018-01-22T00:49:10.976Z,998.94
2018-01-22T00:49:51.518Z,998.89
2018-01-22T00:50:32.102Z,998.94
2018-01-22T00:51:12.629Z,998.92
2018-01-22T00:51:53.240Z,998.96
2018-01-22T00:52:35.409Z,998.87
2018-01-22T00:53:15.941Z,998.93
2018-01-22T00:53:56.519Z,998.88
2018-01-22T00:54:37.082Z,998.9
2018-01-22T00:55:17.612Z,998.82
2018-01-22T00:55:58.177Z,998.75
2018-01-22T00:56:40.340Z,998.81
2018-01-22T00:57:20.903Z,998.8
2018-01-22T00:58:01.444Z,998.78
2018-01-22T00:58:41.995Z,998.75
2018-01-22T00:59:22.530Z,998.68
2018-01-22T01:00:03.089Z,998.64
2018-01-22T01:00:43.651Z,998.62
2018-01-22T01:01:24.637Z,998.57
2018-01-22T01:02:06.728Z,998.55
2018-01-22T01:02:46.433Z,998.6
2018-01-22T01:03:26.938Z,998.52
2018-01-22T01:04:07.467Z,998.47
2018-01-22T01:04:48.057Z,998.44
2018-01-22T01:05:29.023Z,998.43
2018-01-22T01:06:10.780Z,998.38
2018-01-22T01:06:51.358Z,998.4
2018-01-22T01:07:31.896Z,998.37
2018-01-22T01:08:12.476Z,998.35
2018-01-22T01:08:52.986Z,998.32
2018-01-22T01:09:33.600Z,998.27
2018-01-22T01:10:14.284Z,998.25
2018-01-22T01:10:55.628Z,998.25
2018-01-22T01:11:36.190Z,998.23
2018-01-22T01:12:16.742Z,998.24
2018-01-22T01:12:57.273Z,998.24
2018-01-22T01:13:37.833Z,998.2
2018-01-22T01:14:18.398Z,998.29
2018-01-22T01:14:59.953Z,998.19
2018-01-22T01:15:40.769Z,998.18
2018-01-22T01:16:21.333Z,998.22
2018-01-22T01:17:01.882Z,998.15
2018-01-22T01:17:42.412Z,998.21
2018-01-22T01:18:22.960Z,998.2
2018-01-22T01:19:03.549Z,998.3
2018-01-22T01:19:44.835Z,998.21
2018-01-22T01:20:26.494Z,998.21
2018-01-22T01:21:07.436Z,998.2
2018-01-22T01:21:48.027Z,998.22
2018-01-22T01:22:30.444Z,998.19
2018-01-22T01:24:25.148Z,998.2
2018-01-22T01:25:05.810Z,998.2
2018-01-22T01:25:46.476Z,998.22
2018-01-22T01:26:27.055Z,998.17
2018-01-22T01:27:07.631Z,998.16
2018-01-22T01:27:48.257Z,998.17
2018-01-22T01:28:28.801Z,998.13
2018-01-22T01:29:09.356Z,998.17
2018-01-22T01:29:49.889Z,998.18
2018-01-22T01:30:30.434Z,998.08
2018-01-22T01:31:10.970Z,998.07
2018-01-22T01:31:52.763Z,998.08
2018-01-22T01:32:33.426Z,998.07
2018-01-22T01:33:14.015Z,998.04
2018-01-22T01:33:54.579Z,998.07
2018-01-22T01:34:35.146Z,998.08
2018-01-22T01:35:15.691Z,998.01
2018-01-22T01:35:56.278Z,998.04
2018-01-22T01:36:38.107Z,998.03
2018-01-22T01:37:18.716Z,998.06
2018-01-22T01:37:59.215Z,998.04
2018-01-22T01:38:39.751Z,998.01
2018-01-22T01:39:20.348Z,998.01
2018-01-22T01:40:00.888Z,997.99
2018-01-22T01:40:41.879Z,998.01
2018-01-22T01:41:22.903Z,998.07
2018-01-22T01:42:03.472Z,998.06
2018-01-22T01:42:44.101Z,998.09
2018-01-22T01:43:24.678Z,998.11
2018-01-22T01:44:05.215Z,998.09
2018-01-22T01:44:45.786Z,998.09
2018-01-22T01:45:26.377Z,998.06
2018-01-22T01:46:07.173Z,998.08
2018-01-22T01:46:48.612Z,998.07
2018-01-22T01:47:29.220Z,998.05
2018-01-22T01:48:09.832Z,998
2018-01-22T01:48:50.387Z,998.02
2018-01-22T01:49:30.982Z,998.01
2018-01-22T01:50:12.732Z,997.99
2018-01-22T01:50:53.138Z,998.07
2018-01-22T01:51:33.735Z,998
2018-01-22T01:52:14.330Z,998.05
2018-01-22T01:52:54.924Z,998.01
2018-01-22T01:53:35.541Z,998.03
2018-01-22T01:54:16.286Z,997.98
2018-01-22T01:54:58.034Z,997.95
2018-01-22T01:55:38.791Z,997.92
2018-01-22T01:56:19.345Z,997.91
2018-01-22T01:56:59.879Z,997.89
2018-01-22T01:57:40.402Z,997.79
2018-01-22T01:58:20.971Z,997.82
2018-01-22T01:59:02.959Z,997.82
2018-01-22T01:59:46.072Z,997.79
2018-01-22T02:00:27.940Z,997.75
2018-01-22T02:01:08.511Z,997.75
2018-01-22T02:01:49.513Z,997.74
2018-01-22T02:02:30.078Z,997.74
2018-01-22T02:03:10.677Z,997.75
2018-01-22T02:03:51.355Z,997.75
2018-01-22T02:04:34.890Z,997.71
2018-01-22T02:05:15.504Z,997.74
2018-01-22T02:05:56.077Z,997.72
2018-01-22T02:06:37.306Z,997.68
2018-01-22T02:07:18.408Z,997.73
2018-01-22T02:07:59.052Z,997.72
2018-01-22T02:08:39.587Z,997.71
2018-01-22T02:09:20.157Z,997.71
2018-01-22T02:10:00.801Z,997.69
2018-01-22T02:10:41.695Z,997.66
2018-01-22T02:11:25.791Z,997.67
2018-01-22T02:12:06.310Z,997.67
2018-01-22T02:12:47.824Z,997.71
2018-01-22T02:13:28.432Z,997.66
2018-01-22T02:14:09.006Z,997.64
2018-01-22T02:14:49.548Z,997.68
2018-01-22T02:15:30.075Z,997.69
2018-01-22T02:16:10.648Z,997.62
2018-01-22T02:16:51.992Z,997.62
2018-01-22T02:17:32.781Z,997.63
2018-01-22T02:18:13.327Z,997.68
2018-01-22T02:18:53.869Z,997.69
2018-01-22T02:19:34.451Z,997.63
2018-01-22T02:20:15.076Z,997.59
2018-01-22T02:20:55.627Z,997.59
2018-01-22T02:21:36.117Z,997.58
2018-01-22T02:22:17.890Z,997.61
2018-01-22T02:22:58.573Z,997.59
2018-01-22T02:23:39.127Z,997.57
2018-01-22T02:24:19.716Z,997.58
2018-01-22T02:25:00.266Z,997.51
2018-01-22T02:25:40.816Z,997.48
2018-01-22T02:26:21.967Z,997.47
2018-01-22T02:27:02.962Z,997.45
2018-01-22T02:27:43.590Z,997.48
2018-01-22T02:28:24.115Z,997.36
2018-01-22T02:29:04.747Z,997.36
2018-01-22T02:29:45.289Z,997.35
2018-01-22T02:30:25.886Z,997.28
2018-01-22T02:31:06.412Z,997.34
2018-01-22T02:31:47.482Z,997.26
2018-01-22T02:32:28.110Z,997.22
2018-01-22T02:33:08.649Z,997.26
2018-01-22T02:33:49.212Z,997.21
2018-01-22T02:34:29.805Z,997.23
2018-01-22T02:35:10.309Z,997.17
2018-01-22T02:35:50.840Z,997.25
2018-01-22T02:36:32.470Z,997.19
2018-01-22T02:37:14.827Z,997.19
2018-01-22T02:37:55.394Z,997.17
2018-01-22T02:38:35.946Z,997.21
2018-01-22T02:39:16.879Z,997.2
2018-01-22T02:39:57.480Z,997.18
2018-01-22T02:40:38.206Z,997.11
2018-01-22T02:41:18.800Z,997.12
2018-01-22T02:41:59.338Z,997.16
2018-01-22T02:42:39.883Z,997.09
2018-01-22T02:43:20.454Z,997.14
2018-01-22T02:44:01.045Z,997.14
2018-01-22T02:44:42.643Z,997.1
2018-01-22T02:45:23.319Z,997.04
2018-01-22T02:46:03.886Z,997.03
2018-01-22T02:46:45.119Z,997.03
2018-01-22T02:47:24.944Z,996.99
2018-01-22T02:48:05.494Z,997.02
2018-01-22T02:48:46.133Z,997.04
2018-01-22T02:49:28.689Z,997.07
2018-01-22T02:50:09.208Z,997.04
2018-01-22T02:50:49.783Z,997.01
2018-01-22T02:51:30.363Z,997.01
2018-01-22T02:52:10.896Z,996.98
2018-01-22T02:52:51.463Z,997.01
2018-01-22T02:53:31.967Z,997.01
2018-01-22T02:54:12.510Z,996.97
2018-01-22T02:54:53.041Z,996.92
2018-01-22T02:55:33.612Z,996.92
2018-01-22T02:56:14.156Z,996.96
2018-01-22T02:56:54.776Z,996.94
2018-01-22T02:57:36.156Z,996.89
2018-01-22T02:58:16.716Z,996.92
2018-01-22T02:58:57.271Z,996.89
2018-01-22T02:59:37.851Z,996.86
2018-01-22T03:00:18.407Z,996.88
2018-01-22T03:00:58.988Z,996.9
2018-01-22T03:01:39.507Z,996.89
2018-01-22T03:02:20.104Z,996.88
2018-01-22T03:03:00.701Z,996.77
2018-01-22T03:03:41.277Z,996.81
2018-01-22T03:04:21.820Z,996.77
2018-01-22T03:05:02.400Z,996.74
2018-01-22T03:05:42.983Z,996.8
2018-01-22T03:06:23.544Z,996.78
2018-01-22T03:07:04.225Z,996.81
2018-01-22T03:07:44.858Z,996.79
2018-01-22T03:08:25.398Z,996.79
2018-01-22T03:09:05.984Z,996.89
2018-01-22T03:09:46.535Z,996.86
2018-01-22T03:10:27.080Z,996.78
2018-01-22T03:11:07.598Z,996.75
2018-01-22T03:11:48.167Z,996.72
2018-01-22T03:12:29.282Z,996.7
2018-01-22T03:13:09.838Z,996.66
2018-01-22T03:13:50.399Z,996.68
2018-01-22T03:14:30.913Z,996.71
2018-01-22T03:15:11.508Z,996.7
2018-01-22T03:15:52.072Z,996.69
2018-01-22T03:16:32.628Z,996.69
2018-01-22T03:17:13.156Z,996.71
2018-01-22T03:17:53.691Z,996.74
2018-01-22T03:18:34.248Z,996.68
2018-01-22T03:19:14.863Z,996.7
2018-01-22T03:19:55.416Z,996.68
2018-01-22T03:20:35.940Z,996.67
2018-01-22T03:21:16.529Z,996.66
2018-01-22T03:21:57.080Z,996.67
2018-01-22T03:22:37.612Z,996.65
2018-01-22T03:23:18.185Z,996.67
2018-01-22T03:23:58.774Z,996.74
2018-01-22T03:24:39.355Z,996.74
2018-01-22T03:25:19.950Z,996.7
2018-01-22T03:26:00.501Z,996.76
2018-01-22T03:26:41.112Z,996.72
2018-01-22T03:27:21.640Z,996.82
2018-01-22T03:28:02.280Z,996.75
2018-01-22T03:28:42.829Z,996.8
2018-01-22T03:29:23.460Z,996.82
2018-01-22T03:30:04.039Z,996.86
2018-01-22T03:30:44.580Z,996.82
2018-01-22T03:31:25.190Z,996.84
2018-01-22T03:32:05.730Z,996.85
2018-01-22T03:32:46.255Z,996.85
2018-01-22T03:33:26.894Z,996.87
2018-01-22T03:34:07.465Z,996.92
2018-01-22T03:34:48.085Z,996.91
2018-01-22T03:35:28.634Z,996.9
2018-01-22T03:36:09.217Z,996.89
2018-01-22T03:36:49.778Z,996.93
2018-01-22T03:37:30.340Z,996.97
2018-01-22T03:38:10.948Z,997.03
2018-01-22T03:38:51.534Z,997.07
2018-01-22T03:39:32.079Z,997.04
2018-01-22T03:40:12.682Z,997
2018-01-22T03:40:53.287Z,996.94
2018-01-22T03:41:33.809Z,996.94
2018-01-22T03:42:14.398Z,997.01
2018-01-22T03:42:54.991Z,997.08
2018-01-22T03:43:35.565Z,997.05
2018-01-22T03:44:16.144Z,997.06
2018-01-22T03:44:56.752Z,997.11
2018-01-22T03:45:37.337Z,997.08
2018-01-22T03:46:17.881Z,997.16
2018-01-22T03:46:58.478Z,997.13
2018-01-22T03:47:38.991Z,997.1
2018-01-22T03:48:19.579Z,997.05
2018-01-22T03:49:00.126Z,996.99
2018-01-22T03:49:40.669Z,997.04
2018-01-22T03:50:21.228Z,997.09
2018-01-22T03:51:01.806Z,997.09
2018-01-22T03:51:42.337Z,997.11
2018-01-22T03:52:22.871Z,997.1
2018-01-22T03:53:03.418Z,997.08
2018-01-22T03:53:43.959Z,997.1
2018-01-22T03:54:24.504Z,997.13
2018-01-22T03:55:05.057Z,997.08
2018-01-22T03:55:45.666Z,997.16
2018-01-22T03:56:26.177Z,997.1
2018-01-22T03:57:06.707Z,997.12
2018-01-22T03:57:47.288Z,997.11
2018-01-22T03:58:27.808Z,997.13
2018-01-22T03:59:08.362Z,997.07
2018-01-22T03:59:48.901Z,997.1
2018-01-22T04:00:29.451Z,997.12
2018-01-22T04:01:10.006Z,997.05
2018-01-22T04:01:50.521Z,997.08
2018-01-22T04:02:31.082Z,997.1
2018-01-22T04:03:11.650Z,997.04
2018-01-22T04:03:52.163Z,996.99
2018-01-22T04:04:32.700Z,997
2018-01-22T04:05:13.286Z,996.99
2018-01-22T04:05:53.867Z,997
2018-01-22T04:06:34.391Z,997.05
2018-01-22T04:07:14.951Z,997.1
2018-01-22T04:07:55.491Z,997.17
2018-01-22T04:08:36.064Z,997.11
2018-01-22T04:09:16.665Z,997.01
2018-01-22T04:09:57.245Z,996.88
2018-01-22T04:10:37.739Z,996.85
2018-01-22T04:11:18.321Z,996.9
2018-01-22T04:11:58.874Z,996.94
2018-01-22T04:12:39.439Z,997.01
2018-01-22T04:13:19.959Z,997.1
2018-01-22T04:14:00.521Z,997.14
2018-01-22T04:14:41.080Z,997.16
2018-01-22T04:16:47.827Z,996.9
2018-01-22T04:17:28.386Z,996.78
2018-01-22T04:18:08.916Z,996.79
2018-01-22T04:18:49.507Z,996.92
2018-01-22T04:19:30.020Z,997.05
2018-01-22T04:20:10.614Z,997.11
2018-01-22T04:20:51.177Z,997.07
2018-01-22T04:21:31.717Z,997.14
2018-01-22T04:22:12.309Z,997.03
2018-01-22T04:45:10.480Z,996.97
2018-01-22T04:45:51.143Z,997
2018-01-22T04:46:31.700Z,996.92
2018-01-22T04:47:12.222Z,996.89
2018-01-22T04:47:52.733Z,996.85
2018-01-22T04:48:33.314Z,996.79
2018-01-22T04:49:13.901Z,996.84
2018-01-22T04:49:54.439Z,996.98
2018-01-22T04:50:34.976Z,997.06
2018-01-22T04:51:15.543Z,997.13
2018-01-22T04:51:56.099Z,997.08
2018-01-22T04:52:36.643Z,997.04
2018-01-22T04:53:17.232Z,996.86
2018-01-22T04:53:57.793Z,996.81
2018-01-22T04:54:38.350Z,996.78
2018-01-22T04:55:18.927Z,996.93
2018-01-22T04:55:59.473Z,997.05
2018-01-22T04:56:40.008Z,997.01
2018-01-22T04:57:20.657Z,997.04
2018-01-22T04:58:01.279Z,996.97
2018-01-22T04:58:41.823Z,996.9
2018-01-22T04:59:22.391Z,996.85
2018-01-22T05:00:03.000Z,996.87
2018-01-22T05:00:43.539Z,996.88
2018-01-22T05:01:24.033Z,996.98
2018-01-22T05:02:04.630Z,996.93
2018-01-22T05:02:45.198Z,996.9
2018-01-22T05:03:25.882Z,996.89
2018-01-22T05:04:06.552Z,996.85
2018-01-22T05:04:47.120Z,996.81
2018-01-22T05:05:27.732Z,996.92
2018-01-22T05:06:08.270Z,997.01
2018-01-22T05:06:48.897Z,996.93
2018-01-22T05:07:29.429Z,996.83
2018-01-22T05:08:10.009Z,996.78
2018-01-22T05:08:50.587Z,996.85
2018-01-22T05:09:31.131Z,996.86
2018-01-22T05:10:11.725Z,996.84
2018-01-22T05:10:52.289Z,996.81
2018-01-22T05:11:32.886Z,996.82
2018-01-22T05:12:13.374Z,996.84
2018-01-22T05:12:53.966Z,996.81
2018-01-22T05:13:34.541Z,996.84
2018-01-22T05:14:15.071Z,996.8
2018-01-22T05:14:55.633Z,996.88
2018-01-22T05:15:36.170Z,996.82
2018-01-22T05:16:16.752Z,996.76
2018-01-22T05:16:57.327Z,996.7
2018-01-22T05:17:37.892Z,996.75
2018-01-22T05:18:20.075Z,996.79
2018-01-22T05:19:00.629Z,996.75
2018-01-22T05:19:41.226Z,996.74
2018-01-22T05:20:21.795Z,996.61
2018-01-22T05:21:02.449Z,996.69
2018-01-22T05:21:42.973Z,996.76
2018-01-22T05:22:23.541Z,996.7
2018-01-22T05:23:04.094Z,996.68
2018-01-22T05:23:44.689Z,996.7
2018-01-22T05:24:25.297Z,996.61
2018-01-22T05:25:05.821Z,996.68
2018-01-22T05:25:46.426Z,996.65
2018-01-22T05:26:26.944Z,996.72
2018-01-22T05:27:07.482Z,996.62
2018-01-22T05:27:47.992Z,996.57
2018-01-22T05:28:28.565Z,996.66
2018-01-22T05:29:09.110Z,996.63
2018-01-22T05:29:49.668Z,996.65
2018-01-22T05:30:30.198Z,996.62
2018-01-22T05:31:10.782Z,996.65
2018-01-22T05:31:51.332Z,996.67
2018-01-22T05:32:31.906Z,996.63
2018-01-22T05:33:12.457Z,996.61
2018-01-22T05:33:53.024Z,996.63
2018-01-22T05:34:33.661Z,996.57
2018-01-22T05:35:14.225Z,996.64
2018-01-22T05:35:54.757Z,996.62
2018-01-22T05:36:35.303Z,996.65
2018-01-22T05:37:15.860Z,996.63
2018-01-22T05:37:56.376Z,996.62
2018-01-22T05:38:36.910Z,996.63
2018-01-22T05:39:17.508Z,996.65
2018-01-22T05:39:58.031Z,996.61
2018-01-22T05:40:38.618Z,996.58
2018-01-22T05:41:19.135Z,996.59
2018-01-22T05:41:59.740Z,996.61
2018-01-22T05:42:40.271Z,996.57
2018-01-22T05:43:20.901Z,996.64
2018-01-22T05:44:01.411Z,996.6
2018-01-22T05:44:41.952Z,996.61
2018-01-22T05:45:22.614Z,996.62
2018-01-22T05:46:03.204Z,996.61
2018-01-22T05:46:43.875Z,996.52
2018-01-22T05:47:24.428Z,996.52
2018-01-22T05:48:04.958Z,996.6
2018-01-22T05:48:45.521Z,996.63
2018-01-22T05:49:26.088Z,996.57
2018-01-22T05:50:06.632Z,996.53
2018-01-22T05:50:47.211Z,996.51
2018-01-22T05:51:27.787Z,996.52
2018-01-22T05:52:08.316Z,996.63
2018-01-22T05:52:48.874Z,996.67
2018-01-22T05:53:29.462Z,996.57
2018-01-22T05:54:10.055Z,996.47
2018-01-22T05:54:50.613Z,996.48
2018-01-22T05:55:31.146Z,996.54
2018-01-22T05:56:11.708Z,996.53
2018-01-22T05:56:52.263Z,996.5
2018-01-22T05:57:33.814Z,996.51
2018-01-22T05:58:14.397Z,996.55
2018-01-22T05:58:54.921Z,996.54
2018-01-22T05:59:35.511Z,996.49
2018-01-22T06:00:16.032Z,996.57
2018-01-22T06:00:56.648Z,996.54
2018-01-22T06:01:37.223Z,996.52
2018-01-22T06:02:17.778Z,996.48
2018-01-22T06:02:58.365Z,996.46
2018-01-22T06:03:38.909Z,996.51
2018-01-22T06:04:19.458Z,996.45
2018-01-22T06:04:59.969Z,996.55
2018-01-22T06:05:40.544Z,996.46
2018-01-22T06:06:21.130Z,996.48
2018-01-22T06:07:01.715Z,996.47
2018-01-22T06:07:42.288Z,996.5
2018-01-22T06:08:22.818Z,996.5
2018-01-22T06:09:03.412Z,996.48
2018-01-22T06:09:43.977Z,996.44
2018-01-22T06:10:25.433Z,996.43
2018-01-22T06:11:06.032Z,996.43
2018-01-22T06:11:46.633Z,996.42
2018-01-22T06:12:27.155Z,996.4
2018-01-22T06:13:07.741Z,996.43
2018-01-22T06:13:49.012Z,996.43
2018-01-22T06:14:28.824Z,996.45
2018-01-22T06:15:09.407Z,996.44
2018-01-22T06:15:49.999Z,996.44
2018-01-22T06:16:30.589Z,996.36
2018-01-22T06:17:11.146Z,996.4
2018-01-22T06:17:51.720Z,996.37
2018-01-22T06:18:32.317Z,996.48
2018-01-22T06:19:12.915Z,996.46
2018-01-22T06:19:56.327Z,996.46
2018-01-22T06:20:36.889Z,996.45
2018-01-22T06:21:17.482Z,996.41
2018-01-22T06:21:58.057Z,996.42
2018-01-22T06:22:38.595Z,996.43
2018-01-22T06:23:19.179Z,996.49
2018-01-22T06:23:59.787Z,996.45
2018-01-22T06:24:40.413Z,996.42
2018-01-22T06:25:21.056Z,996.47
2018-01-22T06:26:03.877Z,996.46
2018-01-22T06:26:44.444Z,996.41
2018-01-22T06:27:25.015Z,996.4
2018-01-22T06:28:05.642Z,996.32
2018-01-22T06:28:46.154Z,996.37
2018-01-22T06:29:26.701Z,996.4
2018-01-22T06:30:07.262Z,996.33
2018-01-22T06:30:47.852Z,996.23
2018-01-22T06:31:28.440Z,996.32
2018-01-22T06:32:08.948Z,996.28
2018-01-22T06:32:49.483Z,996.27
2018-01-22T06:33:30.038Z,996.3
2018-01-22T06:34:10.614Z,996.34
2018-01-22T06:34:51.157Z,996.36
2018-01-22T06:35:31.738Z,996.31
2018-01-22T06:36:12.301Z,996.23
2018-01-22T06:36:52.843Z,996.27
2018-01-22T06:37:33.392Z,996.32
2018-01-22T06:38:13.957Z,996.28
2018-01-22T06:38:54.520Z,996.31
2018-01-22T06:39:35.057Z,996.32
2018-01-22T06:40:15.658Z,996.35
2018-01-22T06:40:56.241Z,996.36
2018-01-22T06:41:36.738Z,996.35
2018-01-22T06:42:17.290Z,996.36
2018-01-22T06:42:57.896Z,996.36
2018-01-22T06:43:38.557Z,996.38
2018-01-22T06:44:19.209Z,996.38
2018-01-22T06:44:59.813Z,996.35
2018-01-22T06:45:40.324Z,996.29
2018-01-22T06:46:20.924Z,996.32
2018-01-22T06:47:01.515Z,996.34
2018-01-22T06:47:42.131Z,996.43
2018-01-22T06:48:25.542Z,996.36
2018-01-22T06:49:06.110Z,996.31
2018-01-22T06:49:46.730Z,996.27
2018-01-22T06:50:27.309Z,996.32
2018-01-22T06:51:07.925Z,996.34
2018-01-22T06:51:48.582Z,996.35
2018-01-22T06:52:29.131Z,996.38
2018-01-22T06:53:09.794Z,996.31
2018-01-22T06:53:51.019Z,996.41
2018-01-22T06:54:31.299Z,996.36
2018-01-22T06:55:11.870Z,996.41
2018-01-22T06:55:52.455Z,996.32
2018-01-22T06:56:33.140Z,996.39
2018-01-22T06:57:13.695Z,996.35
2018-01-22T06:57:54.263Z,996.38
2018-01-22T06:58:34.789Z,996.38
2018-01-22T06:59:15.353Z,996.48
2018-01-22T06:59:56.030Z,996.5
2018-01-22T07:00:36.593Z,996.44
2018-01-22T07:01:17.174Z,996.34
2018-01-22T07:01:57.693Z,996.25
2018-01-22T07:02:38.236Z,996.33
2018-01-22T07:03:18.929Z,996.37
2018-01-22T07:03:59.523Z,996.39
2018-01-22T07:04:40.106Z,996.32
2018-01-22T07:05:20.680Z,996.26
2018-01-22T07:06:01.288Z,996.29
2018-01-22T07:06:41.958Z,996.27
2018-01-22T07:07:22.415Z,996.32
2018-01-22T07:08:03.225Z,996.29
2018-01-22T07:08:43.814Z,996.34
2018-01-22T07:09:24.428Z,996.31
2018-01-22T07:10:04.955Z,996.28
2018-01-22T07:10:45.605Z,996.28
2018-01-22T07:11:26.207Z,996.24
2018-01-22T07:12:06.797Z,996.17
2018-01-22T07:12:47.348Z,996.17
2018-01-22T07:13:27.889Z,996.26
2018-01-22T07:15:59.856Z,996.35
2018-01-22T07:16:40.572Z,996.3
2018-01-22T07:17:21.109Z,996.33
2018-01-22T07:18:01.593Z,996.24
2018-01-22T07:18:42.204Z,996.2
2018-01-22T07:19:22.762Z,996.24
2018-01-22T07:20:03.407Z,996.21
2018-01-22T07:20:44.080Z,996.15
2018-01-22T07:21:24.532Z,996.24
2018-01-22T07:22:05.181Z,996.2
2018-01-22T07:22:45.648Z,996.2
2018-01-22T07:23:26.225Z,996.26
2018-01-22T07:24:06.765Z,996.29
2018-01-22T07:24:47.247Z,996.3
2018-01-22T07:25:27.800Z,996.27
2018-01-22T07:26:09.454Z,996.23
2018-01-22T07:26:49.952Z,996.19
2018-01-22T07:27:30.447Z,996.18
2018-01-22T07:28:11.112Z,996.19
2018-01-22T07:28:51.587Z,996.28
2018-01-22T07:29:33.068Z,996.19
2018-01-22T07:30:12.821Z,996.2
2018-01-22T07:30:53.390Z,996.13
2018-01-22T07:31:33.880Z,996.17
2018-01-22T07:32:14.444Z,996.24
2018-01-22T07:32:54.998Z,996.33
2018-01-22T07:33:35.506Z,996.42
2018-01-22T07:34:16.213Z,996.31
2018-01-22T07:34:56.809Z,996.24
2018-01-22T07:35:37.311Z,996.33
2018-01-22T07:36:17.950Z,996.26
2018-01-22T07:36:58.477Z,996.29
2018-01-22T07:37:39.050Z,996.36
2018-01-22T07:38:19.550Z,996.36
2018-01-22T07:39:00.094Z,996.29
2018-01-22T07:39:40.653Z,996.3
2018-01-22T07:40:21.238Z,996.34
2018-01-22T07:41:01.805Z,996.32
2018-01-22T07:41:42.403Z,996.34
2018-01-22T07:42:22.944Z,996.36
2018-01-22T07:43:03.555Z,996.34
2018-01-22T07:43:44.060Z,996.29
2018-01-22T07:44:24.724Z,996.32
2018-01-22T07:45:05.313Z,996.32
2018-01-22T07:45:45.754Z,996.35
2018-01-22T07:46:26.322Z,996.3
2018-01-22T07:47:06.853Z,996.34
2018-01-22T07:47:47.443Z,996.39
2018-01-22T07:48:27.958Z,996.39
2018-01-22T07:49:08.553Z,996.39
2018-01-22T07:49:49.692Z,996.42
2018-01-22T07:50:30.280Z,996.46
2018-01-22T07:51:10.764Z,996.5
2018-01-22T07:51:51.319Z,996.53
2018-01-22T07:52:31.865Z,996.52
2018-01-22T07:53:12.444Z,996.48
2018-01-22T07:53:52.996Z,996.54
2018-01-22T07:54:33.517Z,996.56
2018-01-22T07:55:14.074Z,996.58
2018-01-22T07:55:54.612Z,996.5
2018-01-22T07:56:35.117Z,996.48
2018-01-22T07:57:15.708Z,996.4
2018-01-22T07:57:56.262Z,996.39
2018-01-22T07:58:36.829Z,996.36
2018-01-22T07:59:17.386Z,996.37
2018-01-22T07:59:57.915Z,996.43
2018-01-22T08:00:38.673Z,996.45
2018-01-22T08:01:19.146Z,996.45
2018-01-22T08:01:59.664Z,996.49
2018-01-22T08:02:40.151Z,996.44
2018-01-22T08:03:20.700Z,996.38
2018-01-22T08:04:01.212Z,996.38
2018-01-22T08:04:41.834Z,996.37
2018-01-22T08:05:22.390Z,996.36
2018-01-22T08:06:02.915Z,996.29
2018-01-22T08:06:43.700Z,996.22
2018-01-22T08:07:24.191Z,996.22
2018-01-22T08:08:04.730Z,996.19
2018-01-22T08:08:45.275Z,996.22
2018-01-22T08:09:25.841Z,996.17
2018-01-22T08:10:06.485Z,996.13
2018-01-22T08:10:47.072Z,996.12
2018-01-22T08:11:27.591Z,996.08
2018-01-22T08:12:08.150Z,996.08
2018-01-22T08:12:48.709Z,996.09
2018-01-22T08:13:29.301Z,996.02
2018-01-22T08:14:10.005Z,996.04
2018-01-22T08:14:50.507Z,996.06
2018-01-22T08:15:31.000Z,996
2018-01-22T08:16:11.536Z,996.03
2018-01-22T08:16:52.027Z,996.05
2018-01-22T08:17:32.588Z,996.03
2018-01-22T08:18:13.223Z,996.01
2018-01-22T08:18:53.835Z,996.02
2018-01-22T08:19:34.315Z,996.02
2018-01-22T08:20:14.895Z,996.06
2018-01-22T08:20:55.424Z,996.07
2018-01-22T08:21:35.942Z,996.09
2018-01-22T08:22:16.596Z,996.12
2018-01-22T08:22:57.019Z,996.11
2018-01-22T08:23:37.564Z,996.09
2018-01-22T08:24:18.109Z,996.09
2018-01-22T08:24:58.635Z,996.05
2018-01-22T08:25:39.185Z,996.06
2018-01-22T08:26:19.745Z,996.07
2018-01-22T08:27:00.252Z,996.07
2018-01-22T08:27:40.853Z,996.09
2018-01-22T08:28:21.387Z,996.09
2018-01-22T08:29:01.947Z,996.12
2018-01-22T08:29:42.548Z,996.1
2018-01-22T08:30:23.029Z,996.12
2018-01-22T08:31:03.556Z,996.09
2018-01-22T08:31:44.090Z,996.1
2018-01-22T08:32:24.616Z,996.07
2018-01-22T08:33:05.184Z,996.11
2018-01-22T08:33:45.692Z,996.13
2018-01-22T08:34:26.251Z,996.12
2018-01-22T08:35:06.724Z,996.11
2018-01-22T08:35:47.306Z,996.15
2018-01-22T08:36:27.871Z,996.17
2018-01-22T08:37:08.414Z,996.19
2018-01-22T08:37:48.982Z,996.18
2018-01-22T08:38:29.484Z,996.14
2018-01-22T08:39:10.064Z,996.09
2018-01-22T08:39:50.592Z,996.07
2018-01-22T08:40:31.135Z,996.07
2018-01-22T08:41:11.654Z,996.04
2018-01-22T08:41:52.185Z,996.05
2018-01-22T08:42:32.771Z,996
2018-01-22T08:43:13.302Z,995.97
2018-01-22T08:43:53.849Z,996
2018-01-22T08:44:34.886Z,995.99
2018-01-22T08:45:16.097Z,995.99
2018-01-22T08:45:56.658Z,996.03
2018-01-22T08:46:37.134Z,995.98
2018-01-22T08:47:17.746Z,995.97
2018-01-22T08:47:58.326Z,995.98
2018-01-22T08:48:38.916Z,995.98
2018-01-22T08:49:19.475Z,995.97
2018-01-22T08:49:59.977Z,995.98
2018-01-22T08:50:40.707Z,995.95
2018-01-22T08:51:21.488Z,995.97
2018-01-22T08:52:01.960Z,995.99
2018-01-22T08:52:42.516Z,995.99
2018-01-22T08:53:23.032Z,995.96
2018-01-22T08:54:03.598Z,996.01
2018-01-22T08:54:44.088Z,996.02
2018-01-22T08:55:24.621Z,996.01
2018-01-22T08:56:05.614Z,996.03
2018-01-22T08:56:46.215Z,995.97
2018-01-22T08:57:26.605Z,995.94
2018-01-22T08:58:07.147Z,996
2018-01-22T08:58:47.729Z,996.01
2018-01-22T08:59:28.285Z,996
2018-01-22T09:00:08.833Z,996
2018-01-22T09:00:49.408Z,995.95
2018-01-22T09:01:30.084Z,995.97
2018-01-22T09:02:10.555Z,995.97
2018-01-22T09:02:51.158Z,995.93
2018-01-22T09:03:31.651Z,995.94
2018-01-22T09:04:12.333Z,995.96
2018-01-22T09:04:52.889Z,995.99
2018-01-22T09:05:33.501Z,996
2018-01-22T09:06:14.103Z,996.02
2018-01-22T09:06:54.612Z,995.95